sensor_id;sensor_type;location;lat;lon;timestamp;pressure;altitude;pressure_sealevel;temperature;humidity
20987;BME280;10652;50.306;8.570;2023-03-22T00:04:01;97666.88;;;6.69;100.00
20987;BME280;10652;50.306;8.570;2023-03-22T00:08:03;97662.31;;;6.74;100.00
20987;BME280;10652;50.306;8.570;2023-03-22T00:12:07;97664.94;;;6.74;100.00
20987;BME280;10652;50.306;8.570;2023-03-22T00:16:10;97659.66;;;6.76;100.00
20987;BME280;10652;50.306;8.570;2023-03-22T00:20:12;97661.44;;;6.75;100.00
20987;BME280;10652;50.306;8.570;2023-03-22T00:24:14;97658.81;;;6.75;100.00
20987;BME280;10652;50.306;8.570;2023-03-22T00:28:16;97654.09;;;6.85;100.00
20987;BME280;10652;50.306;8.570;2023-03-22T00:32:19;97648.25;;;7.00;100.00
20987;BME280;10652;50.306;8.570;2023-03-22T00:36:21;97638.22;;;7.13;100.00
20987;BME280;10652;50.306;8.570;2023-03-22T00:40:25;97629.81;;;7.26;100.00
20987;BME280;10652;50.306;8.570;2023-03-22T00:44:27;97632.69;;;7.62;100.00
20987;BME280;10652;50.306;8.570;2023-03-22T00:48:29;97627.50;;;7.61;100.00
20987;BME280;10652;50.306;8.570;2023-03-22T00:52:32;97628.31;;;7.63;100.00
20987;BME280;10652;50.306;8.570;2023-03-22T00:56:34;97613.34;;;7.66;100.00
20987;BME280;10652;50.306;8.570;2023-03-22T01:00:47;97621.69;;;7.74;100.00
20987;BME280;10652;50.306;8.570;2023-03-22T01:04:49;97608.38;;;7.80;100.00
20987;BME280;10652;50.306;8.570;2023-03-22T01:08:51;97620.31;;;7.86;100.00
20987;BME280;10652;50.306;8.570;2023-03-22T01:12:56;97615.66;;;7.93;100.00
20987;BME280;10652;50.306;8.570;2023-03-22T01:16:58;97610.38;;;7.94;100.00
20987;BME280;10652;50.306;8.570;2023-03-22T01:21:01;97626.13;;;7.93;100.00
20987;BME280;10652;50.306;8.570;2023-03-22T01:25:04;97615.06;;;7.86;100.00
20987;BME280;10652;50.306;8.570;2023-03-22T01:29:06;97605.75;;;7.80;100.00
20987;BME280;10652;50.306;8.570;2023-03-22T01:33:09;97609.41;;;7.76;100.00
20987;BME280;10652;50.306;8.570;2023-03-22T01:37:11;97606.00;;;7.74;100.00
20987;BME280;10652;50.306;8.570;2023-03-22T01:41:18;97600.63;;;7.77;100.00
20987;BME280;10652;50.306;8.570;2023-03-22T01:45:32;97609.78;;;7.88;100.00
20987;BME280;10652;50.306;8.570;2023-03-22T01:49:36;97598.88;;;7.98;100.00
20987;BME280;10652;50.306;8.570;2023-03-22T01:53:47;97594.09;;;8.08;100.00
20987;BME280;10652;50.306;8.570;2023-03-22T01:57:50;97588.56;;;8.14;100.00
20987;BME280;10652;50.306;8.570;2023-03-22T02:02:03;97586.72;;;8.17;100.00
20987;BME280;10652;50.306;8.570;2023-03-22T02:06:07;97585.03;;;8.15;100.00
20987;BME280;10652;50.306;8.570;2023-03-22T02:10:15;97572.88;;;8.14;100.00
20987;BME280;10652;50.306;8.570;2023-03-22T02:28:41;97547.03;;;7.88;100.00
20987;BME280;10652;50.306;8.570;2023-03-22T02:41:11;97560.75;;;7.72;100.00
20987;BME280;10652;50.306;8.570;2023-03-22T02:45:43;97552.22;;;7.69;100.00
20987;BME280;10652;50.306;8.570;2023-03-22T02:50:06;97555.69;;;7.69;100.00
20987;BME280;10652;50.306;8.570;2023-03-22T02:54:20;97542.75;;;7.66;100.00
20987;BME280;10652;50.306;8.570;2023-03-22T02:58:28;97552.28;;;7.67;100.00
20987;BME280;10652;50.306;8.570;2023-03-22T03:02:34;97557.53;;;7.67;100.00
20987;BME280;10652;50.306;8.570;2023-03-22T03:06:40;97542.75;;;7.66;100.00
20987;BME280;10652;50.306;8.570;2023-03-22T03:10:47;97552.34;;;7.66;100.00
20987;BME280;10652;50.306;8.570;2023-03-22T03:14:50;97545.47;;;7.63;100.00
20987;BME280;10652;50.306;8.570;2023-03-22T03:19:00;97549.09;;;7.61;100.00
20987;BME280;10652;50.306;8.570;2023-03-22T03:23:09;97545.63;;;7.60;100.00
20987;BME280;10652;50.306;8.570;2023-03-22T03:27:21;97536.72;;;7.64;100.00
20987;BME280;10652;50.306;8.570;2023-03-22T03:31:45;97534.59;;;7.93;100.00
20987;BME280;10652;50.306;8.570;2023-03-22T03:35:57;97536.81;;;7.81;100.00
20987;BME280;10652;50.306;8.570;2023-03-22T03:40:08;97526.22;;;7.66;100.00
20987;BME280;10652;50.306;8.570;2023-03-22T03:44:12;97526.97;;;7.49;100.00
20987;BME280;10652;50.306;8.570;2023-03-22T03:48:18;97518.84;;;7.35;100.00
20987;BME280;10652;50.306;8.570;2023-03-22T03:52:20;97519.34;;;7.23;100.00
20987;BME280;10652;50.306;8.570;2023-03-22T03:56:25;97523.16;;;7.16;100.00
20987;BME280;10652;50.306;8.570;2023-03-22T04:00:28;97524.97;;;7.14;100.00
20987;BME280;10652;50.306;8.570;2023-03-22T04:04:57;97513.22;;;7.04;100.00
20987;BME280;10652;50.306;8.570;2023-03-22T04:08:59;97518.06;;;6.91;100.00
20987;BME280;10652;50.306;8.570;2023-03-22T04:13:06;97511.59;;;6.79;100.00
20987;BME280;10652;50.306;8.570;2023-03-22T04:17:09;97509.50;;;6.67;100.00
20987;BME280;10652;50.306;8.570;2023-03-22T04:21:11;97506.31;;;6.59;100.00
20987;BME280;10652;50.306;8.570;2023-03-22T04:25:21;97512.75;;;6.51;100.00
20987;BME280;10652;50.306;8.570;2023-03-22T04:29:33;97510.44;;;6.43;100.00
20987;BME280;10652;50.306;8.570;2023-03-22T04:33:56;97502.75;;;6.40;100.00
20987;BME280;10652;50.306;8.570;2023-03-22T04:38:15;97487.34;;;6.34;100.00
20987;BME280;10652;50.306;8.570;2023-03-22T04:42:19;97487.38;;;6.32;100.00
20987;BME280;10652;50.306;8.570;2023-03-22T04:46:24;97483.22;;;6.27;100.00
20987;BME280;10652;50.306;8.570;2023-03-22T04:50:35;97474.63;;;6.25;100.00
20987;BME280;10652;50.306;8.570;2023-03-22T04:54:38;97477.34;;;6.22;100.00
20987;BME280;10652;50.306;8.570;2023-03-22T04:58:41;97483.91;;;6.32;100.00
20987;BME280;10652;50.306;8.570;2023-03-22T05:02:44;97484.91;;;6.28;100.00
20987;BME280;10652;50.306;8.570;2023-03-22T05:06:55;97493.78;;;6.24;100.00
20987;BME280;10652;50.306;8.570;2023-03-22T05:11:12;97491.84;;;6.29;100.00
20987;BME280;10652;50.306;8.570;2023-03-22T05:15:19;97494.94;;;6.40;100.00
20987;BME280;10652;50.306;8.570;2023-03-22T05:19:23;97499.97;;;6.44;100.00
20987;BME280;10652;50.306;8.570;2023-03-22T05:23:26;97507.78;;;6.44;100.00
20987;BME280;10652;50.306;8.570;2023-03-22T05:27:30;97500.78;;;6.45;100.00
20987;BME280;10652;50.306;8.570;2023-03-22T05:32:03;97502.22;;;6.54;100.00
20987;BME280;10652;50.306;8.570;2023-03-22T05:36:06;97499.16;;;6.64;100.00
20987;BME280;10652;50.306;8.570;2023-03-22T05:40:15;97508.38;;;6.73;100.00
20987;BME280;10652;50.306;8.570;2023-03-22T05:44:19;97502.06;;;6.78;100.00
20987;BME280;10652;50.306;8.570;2023-03-22T05:48:35;97501.56;;;6.90;100.00
20987;BME280;10652;50.306;8.570;2023-03-22T05:52:38;97506.16;;;7.06;100.00
20987;BME280;10652;50.306;8.570;2023-03-22T05:56:53;97509.28;;;7.14;100.00
20987;BME280;10652;50.306;8.570;2023-03-22T06:00:57;97504.53;;;7.23;100.00
20987;BME280;10652;50.306;8.570;2023-03-22T06:05:20;97496.31;;;7.32;100.00
20987;BME280;10652;50.306;8.570;2023-03-22T06:09:24;97487.09;;;7.44;100.00
20987;BME280;10652;50.306;8.570;2023-03-22T06:13:27;97481.47;;;7.53;100.00
20987;BME280;10652;50.306;8.570;2023-03-22T06:17:29;97488.97;;;7.61;100.00
20987;BME280;10652;50.306;8.570;2023-03-22T06:21:32;97499.88;;;7.70;100.00
20987;BME280;10652;50.306;8.570;2023-03-22T06:25:34;97502.97;;;7.78;100.00
20987;BME280;10652;50.306;8.570;2023-03-22T06:29:37;97501.59;;;7.90;100.00
20987;BME280;10652;50.306;8.570;2023-03-22T06:33:40;97507.25;;;8.00;100.00
20987;BME280;10652;50.306;8.570;2023-03-22T06:37:55;97504.94;;;8.12;100.00
20987;BME280;10652;50.306;8.570;2023-03-22T06:41:57;97511.41;;;8.24;100.00
20987;BME280;10652;50.306;8.570;2023-03-22T06:46:00;97511.81;;;8.34;100.00
20987;BME280;10652;50.306;8.570;2023-03-22T06:50:10;97512.94;;;8.47;100.00
20987;BME280;10652;50.306;8.570;2023-03-22T06:54:44;97530.47;;;8.63;100.00
20987;BME280;10652;50.306;8.570;2023-03-22T06:58:47;97522.50;;;8.84;100.00
20987;BME280;10652;50.306;8.570;2023-03-22T07:02:49;97520.06;;;8.98;100.00
20987;BME280;10652;50.306;8.570;2023-03-22T07:07:08;97514.66;;;9.01;100.00
20987;BME280;10652;50.306;8.570;2023-03-22T07:11:11;97526.69;;;9.05;99.77
20987;BME280;10652;50.306;8.570;2023-03-22T07:15:13;97531.63;;;9.11;99.24
20987;BME280;10652;50.306;8.570;2023-03-22T07:19:27;97531.19;;;9.20;99.24
20987;BME280;10652;50.306;8.570;2023-03-22T07:23:31;97521.09;;;9.30;98.82
20987;BME280;10652;50.306;8.570;2023-03-22T07:27:40;97505.59;;;9.42;98.62
20987;BME280;10652;50.306;8.570;2023-03-22T07:31:42;97496.59;;;9.64;98.40
20987;BME280;10652;50.306;8.570;2023-03-22T07:35:46;97500.31;;;9.77;96.43
20987;BME280;10652;50.306;8.570;2023-03-22T07:39:49;97501.22;;;9.93;95.41
20987;BME280;10652;50.306;8.570;2023-03-22T07:43:51;97504.94;;;10.04;94.04
20987;BME280;10652;50.306;8.570;2023-03-22T07:48:05;97494.47;;;10.20;93.53
20987;BME280;10652;50.306;8.570;2023-03-22T07:52:37;97491.34;;;10.29;92.45
20987;BME280;10652;50.306;8.570;2023-03-22T07:56:39;97488.03;;;10.41;91.98
20987;BME280;10652;50.306;8.570;2023-03-22T08:00:43;97492.28;;;10.60;90.97
20987;BME280;10652;50.306;8.570;2023-03-22T08:05:05;97499.53;;;10.86;90.13
20987;BME280;10652;50.306;8.570;2023-03-22T08:09:11;97498.41;;;11.21;88.04
20987;BME280;10652;50.306;8.570;2023-03-22T08:13:15;97500.91;;;11.53;86.51
20987;BME280;10652;50.306;8.570;2023-03-22T08:17:18;97502.03;;;11.63;83.94
20987;BME280;10652;50.306;8.570;2023-03-22T08:21:20;97508.69;;;11.54;80.01
20987;BME280;10652;50.306;8.570;2023-03-22T08:25:26;97520.25;;;11.52;76.80
20987;BME280;10652;50.306;8.570;2023-03-22T08:29:34;97507.13;;;11.66;75.12
20987;BME280;10652;50.306;8.570;2023-03-22T08:33:36;97518.41;;;11.82;72.29
20987;BME280;10652;50.306;8.570;2023-03-22T08:37:39;97518.06;;;12.02;71.32
20987;BME280;10652;50.306;8.570;2023-03-22T08:41:43;97497.56;;;12.21;70.46
20987;BME280;10652;50.306;8.570;2023-03-22T08:45:45;97497.56;;;12.36;68.82
20987;BME280;10652;50.306;8.570;2023-03-22T08:49:50;97499.78;;;12.56;68.65
20987;BME280;10652;50.306;8.570;2023-03-22T08:53:58;97488.16;;;12.73;66.47
20987;BME280;10652;50.306;8.570;2023-03-22T08:58:19;97483.38;;;12.65;65.32
20987;BME280;10652;50.306;8.570;2023-03-22T09:02:42;97486.66;;;12.95;65.70
20987;BME280;10652;50.306;8.570;2023-03-22T09:06:44;97473.03;;;13.16;64.13
20987;BME280;10652;50.306;8.570;2023-03-22T09:10:48;97461.22;;;13.21;63.53
20987;BME280;10652;50.306;8.570;2023-03-22T09:14:54;97465.94;;;13.55;63.74
20987;BME280;10652;50.306;8.570;2023-03-22T09:19:00;97459.41;;;13.74;62.75
20987;BME280;10652;50.306;8.570;2023-03-22T09:23:03;97458.22;;;13.65;59.30
20987;BME280;10652;50.306;8.570;2023-03-22T09:27:06;97460.66;;;13.81;61.06
20987;BME280;10652;50.306;8.570;2023-03-22T09:31:08;97452.75;;;13.93;60.11
20987;BME280;10652;50.306;8.570;2023-03-22T09:35:12;97453.88;;;14.02;59.25
20987;BME280;10652;50.306;8.570;2023-03-22T09:39:25;97446.47;;;13.94;58.22
20987;BME280;10652;50.306;8.570;2023-03-22T09:43:45;97438.38;;;13.97;57.10
20987;BME280;10652;50.306;8.570;2023-03-22T09:47:52;97442.91;;;13.95;58.03
20987;BME280;10652;50.306;8.570;2023-03-22T09:51:57;97450.09;;;13.81;58.07
20987;BME280;10652;50.306;8.570;2023-03-22T09:56:16;97450.53;;;13.75;57.87
20987;BME280;10652;50.306;8.570;2023-03-22T10:00:41;97452.00;;;13.66;58.83
20987;BME280;10652;50.306;8.570;2023-03-22T10:05:30;97442.69;;;13.48;59.05
20987;BME280;10652;50.306;8.570;2023-03-22T10:17:54;97439.06;;;13.36;59.29
20987;BME280;10652;50.306;8.570;2023-03-22T10:21:58;97438.84;;;13.27;59.90
20987;BME280;10652;50.306;8.570;2023-03-22T10:26:04;97433.06;;;13.22;60.30
20987;BME280;10652;50.306;8.570;2023-03-22T10:30:18;97442.38;;;13.00;60.49
20987;BME280;10652;50.306;8.570;2023-03-22T10:34:26;97437.19;;;12.86;61.58
20987;BME280;10652;50.306;8.570;2023-03-22T10:38:33;97434.38;;;12.89;62.86
20987;BME280;10652;50.306;8.570;2023-03-22T10:42:38;97438.41;;;13.07;63.26
20987;BME280;10652;50.306;8.570;2023-03-22T10:46:41;97430.44;;;13.34;62.94
20987;BME280;10652;50.306;8.570;2023-03-22T10:50:45;97441.66;;;13.63;61.54
20987;BME280;10652;50.306;8.570;2023-03-22T10:54:47;97439.53;;;13.93;59.48
20987;BME280;10652;50.306;8.570;2023-03-22T10:58:50;97436.78;;;14.08;59.84
20987;BME280;10652;50.306;8.570;2023-03-22T11:02:57;97444.78;;;14.06;58.04
20987;BME280;10652;50.306;8.570;2023-03-22T11:06:59;97441.31;;;14.06;57.40
20987;BME280;10652;50.306;8.570;2023-03-22T11:11:04;97436.66;;;13.96;56.86
20987;BME280;10652;50.306;8.570;2023-03-22T11:15:21;97425.81;;;13.88;57.18
20987;BME280;10652;50.306;8.570;2023-03-22T11:19:27;97421.59;;;13.73;57.55
20987;BME280;10652;50.306;8.570;2023-03-22T11:23:33;97421.56;;;13.86;58.14
20987;BME280;10652;50.306;8.570;2023-03-22T11:27:52;97406.81;;;13.83;56.80
20987;BME280;10652;50.306;8.570;2023-03-22T11:31:56;97404.06;;;13.72;57.19
20987;BME280;10652;50.306;8.570;2023-03-22T11:36:02;97400.06;;;13.79;57.31
20987;BME280;10652;50.306;8.570;2023-03-22T11:40:05;97389.44;;;14.05;57.30
20987;BME280;10652;50.306;8.570;2023-03-22T11:44:14;97387.53;;;14.07;55.94
20987;BME280;10652;50.306;8.570;2023-03-22T11:48:20;97389.38;;;14.17;53.85
20987;BME280;10652;50.306;8.570;2023-03-22T11:52:25;97387.91;;;14.26;54.50
20987;BME280;10652;50.306;8.570;2023-03-22T11:56:28;97391.00;;;14.43;54.70
20987;BME280;10652;50.306;8.570;2023-03-22T12:00:34;97372.50;;;14.43;53.30
20987;BME280;10652;50.306;8.570;2023-03-22T12:04:38;97382.28;;;14.54;53.34
20987;BME280;10652;50.306;8.570;2023-03-22T12:08:55;97376.63;;;14.71;52.59
20987;BME280;10652;50.306;8.570;2023-03-22T12:13:02;97373.06;;;14.83;52.04
20987;BME280;10652;50.306;8.570;2023-03-22T12:17:11;97375.47;;;14.86;51.83
20987;BME280;10652;50.306;8.570;2023-03-22T12:21:15;97373.25;;;15.04;52.59
20987;BME280;10652;50.306;8.570;2023-03-22T12:25:20;97366.69;;;15.21;50.33
20987;BME280;10652;50.306;8.570;2023-03-22T12:29:24;97372.94;;;15.20;49.32
20987;BME280;10652;50.306;8.570;2023-03-22T12:33:48;97365.72;;;15.22;48.57
20987;BME280;10652;50.306;8.570;2023-03-22T12:37:53;97359.00;;;15.29;48.95
20987;BME280;10652;50.306;8.570;2023-03-22T12:42:01;97346.00;;;15.37;49.32
20987;BME280;10652;50.306;8.570;2023-03-22T12:46:04;97358.53;;;15.35;48.83
20987;BME280;10652;50.306;8.570;2023-03-22T12:50:14;97354.66;;;15.28;48.79
20987;BME280;10652;50.306;8.570;2023-03-22T12:54:21;97361.59;;;15.18;48.92
20987;BME280;10652;50.306;8.570;2023-03-22T12:58:25;97349.38;;;15.17;49.19
20987;BME280;10652;50.306;8.570;2023-03-22T13:02:30;97340.44;;;15.18;49.32
20987;BME280;10652;50.306;8.570;2023-03-22T13:11:02;97327.25;;;15.40;48.98
20987;BME280;10652;50.306;8.570;2023-03-22T13:15:28;97321.25;;;15.38;48.41
20987;BME280;10652;50.306;8.570;2023-03-22T13:19:54;97306.31;;;15.37;48.80
20987;BME280;10652;50.306;8.570;2023-03-22T13:28:24;97310.28;;;15.54;48.82
20987;BME280;10652;50.306;8.570;2023-03-22T13:32:31;97304.66;;;15.58;47.95
20987;BME280;10652;50.306;8.570;2023-03-22T13:36:34;97298.88;;;15.53;47.53
20987;BME280;10652;50.306;8.570;2023-03-22T13:40:46;97305.50;;;15.59;47.55
20987;BME280;10652;50.306;8.570;2023-03-22T13:44:54;97300.22;;;15.70;46.68
20987;BME280;10652;50.306;8.570;2023-03-22T13:49:26;97299.34;;;15.69;46.61
20987;BME280;10652;50.306;8.570;2023-03-22T13:53:34;97296.72;;;15.58;46.28
20987;BME280;10652;50.306;8.570;2023-03-22T14:01:51;97287.53;;;15.18;46.75
20987;BME280;10652;50.306;8.570;2023-03-22T14:06:02;97303.06;;;15.11;47.30
20987;BME280;10652;50.306;8.570;2023-03-22T14:10:19;97298.84;;;15.20;47.43
20987;BME280;10652;50.306;8.570;2023-03-22T14:14:26;97297.91;;;15.21;47.99
20987;BME280;10652;50.306;8.570;2023-03-22T14:18:30;97291.38;;;15.14;47.03
20987;BME280;10652;50.306;8.570;2023-03-22T14:22:37;97296.06;;;15.10;47.30
20987;BME280;10652;50.306;8.570;2023-03-22T14:26:44;97291.13;;;15.06;48.17
20987;BME280;10652;50.306;8.570;2023-03-22T14:30:47;97298.47;;;15.02;48.12
20987;BME280;10652;50.306;8.570;2023-03-22T14:34:57;97294.38;;;15.09;48.86
20987;BME280;10652;50.306;8.570;2023-03-22T14:39:06;97305.34;;;15.16;48.96
20987;BME280;10652;50.306;8.570;2023-03-22T14:43:24;97311.34;;;15.07;48.64
20987;BME280;10652;50.306;8.570;2023-03-22T14:47:30;97306.75;;;14.98;49.13
20987;BME280;10652;50.306;8.570;2023-03-22T14:51:37;97304.06;;;14.86;49.53
20987;BME280;10652;50.306;8.570;2023-03-22T14:55:38;97285.81;;;14.83;52.42
20987;BME280;10652;50.306;8.570;2023-03-22T14:59:42;97294.63;;;15.06;54.13
20987;BME280;10652;50.306;8.570;2023-03-22T15:03:46;97293.56;;;15.31;54.63
20987;BME280;10652;50.306;8.570;2023-03-22T15:08:10;97292.09;;;15.49;54.31
20987;BME280;10652;50.306;8.570;2023-03-22T15:12:13;97286.84;;;15.60;54.73
20987;BME280;10652;50.306;8.570;2023-03-22T15:16:20;97289.25;;;15.63;50.64
20987;BME280;10652;50.306;8.570;2023-03-22T15:20:34;97278.88;;;15.27;49.41
20987;BME280;10652;50.306;8.570;2023-03-22T15:24:37;97275.88;;;14.98;50.11
20987;BME280;10652;50.306;8.570;2023-03-22T15:28:50;97269.34;;;14.80;49.40
20987;BME280;10652;50.306;8.570;2023-03-22T15:33:00;97264.59;;;14.61;49.43
20987;BME280;10652;50.306;8.570;2023-03-22T15:37:02;97265.38;;;14.51;49.14
20987;BME280;10652;50.306;8.570;2023-03-22T15:41:19;97236.03;;;14.42;49.93
20987;BME280;10652;50.306;8.570;2023-03-22T15:45:21;97260.84;;;14.29;49.10
20987;BME280;10652;50.306;8.570;2023-03-22T15:53:34;97267.88;;;14.17;49.42
20987;BME280;10652;50.306;8.570;2023-03-22T15:57:51;97272.03;;;14.09;49.27
20987;BME280;10652;50.306;8.570;2023-03-22T16:01:57;97280.09;;;14.07;49.16
20987;BME280;10652;50.306;8.570;2023-03-22T16:05:58;97287.38;;;14.03;49.21
20987;BME280;10652;50.306;8.570;2023-03-22T16:10:00;97283.28;;;13.99;49.33
20987;BME280;10652;50.306;8.570;2023-03-22T16:14:01;97288.50;;;13.88;49.12
20987;BME280;10652;50.306;8.570;2023-03-22T16:18:05;97281.63;;;13.86;48.37
20987;BME280;10652;50.306;8.570;2023-03-22T16:22:09;97288.00;;;13.83;48.65
20987;BME280;10652;50.306;8.570;2023-03-22T16:26:15;97273.66;;;13.75;48.38
20987;BME280;10652;50.306;8.570;2023-03-22T16:30:17;97277.59;;;13.69;48.87
20987;BME280;10652;50.306;8.570;2023-03-22T16:34:18;97275.38;;;13.63;48.40
20987;BME280;10652;50.306;8.570;2023-03-22T16:38:20;97263.59;;;13.56;48.73
20987;BME280;10652;50.306;8.570;2023-03-22T16:42:23;97267.31;;;13.53;49.24
20987;BME280;10652;50.306;8.570;2023-03-22T16:46:26;97268.25;;;13.52;49.23
20987;BME280;10652;50.306;8.570;2023-03-22T16:50:31;97280.13;;;13.45;49.56
20987;BME280;10652;50.306;8.570;2023-03-22T16:54:33;97283.09;;;13.41;49.61
20987;BME280;10652;50.306;8.570;2023-03-22T16:58:34;97287.97;;;13.34;50.56
20987;BME280;10652;50.306;8.570;2023-03-22T17:02:38;97296.22;;;13.30;51.02
20987;BME280;10652;50.306;8.570;2023-03-22T17:06:39;97302.66;;;13.26;51.27
20987;BME280;10652;50.306;8.570;2023-03-22T17:10:40;97303.81;;;13.22;51.48
20987;BME280;10652;50.306;8.570;2023-03-22T17:14:41;97295.16;;;13.20;51.17
20987;BME280;10652;50.306;8.570;2023-03-22T17:18:42;97285.78;;;13.16;51.06
20987;BME280;10652;50.306;8.570;2023-03-22T17:22:43;97301.06;;;13.10;51.18
20987;BME280;10652;50.306;8.570;2023-03-22T17:26:44;97302.97;;;13.08;51.21
20987;BME280;10652;50.306;8.570;2023-03-22T17:30:45;97307.59;;;13.05;51.20
20987;BME280;10652;50.306;8.570;2023-03-22T17:34:46;97300.75;;;13.02;51.45
20987;BME280;10652;50.306;8.570;2023-03-22T17:38:47;97304.44;;;13.00;51.56
20987;BME280;10652;50.306;8.570;2023-03-22T17:42:49;97308.16;;;12.97;51.64
20987;BME280;10652;50.306;8.570;2023-03-22T17:46:50;97309.09;;;12.96;51.93
20987;BME280;10652;50.306;8.570;2023-03-22T17:50:51;97305.72;;;12.94;51.75
20987;BME280;10652;50.306;8.570;2023-03-22T17:54:52;97293.69;;;12.90;51.65
20987;BME280;10652;50.306;8.570;2023-03-22T17:58:53;97288.84;;;12.84;51.57
20987;BME280;10652;50.306;8.570;2023-03-22T18:02:54;97300.53;;;12.80;51.86
20987;BME280;10652;50.306;8.570;2023-03-22T18:06:55;97294.63;;;12.77;51.57
20987;BME280;10652;50.306;8.570;2023-03-22T18:10:56;97282.59;;;12.73;51.35
20987;BME280;10652;50.306;8.570;2023-03-22T18:14:57;97283.56;;;12.72;51.14
20987;BME280;10652;50.306;8.570;2023-03-22T18:18:58;97284.59;;;12.69;50.87
20987;BME280;10652;50.306;8.570;2023-03-22T18:23:03;97280.72;;;12.62;50.81
20987;BME280;10652;50.306;8.570;2023-03-22T18:27:04;97291.34;;;12.60;50.65
20987;BME280;10652;50.306;8.570;2023-03-22T18:31:05;97286.91;;;12.61;50.84
20987;BME280;10652;50.306;8.570;2023-03-22T18:35:08;97289.66;;;12.59;50.90
20987;BME280;10652;50.306;8.570;2023-03-22T18:39:09;97284.38;;;12.59;50.69
20987;BME280;10652;50.306;8.570;2023-03-22T18:43:14;97281.88;;;12.58;50.44
20987;BME280;10652;50.306;8.570;2023-03-22T18:47:15;97277.63;;;12.55;50.34
20987;BME280;10652;50.306;8.570;2023-03-22T18:51:19;97277.72;;;12.54;50.31
20987;BME280;10652;50.306;8.570;2023-03-22T18:55:20;97277.00;;;12.52;50.54
20987;BME280;10652;50.306;8.570;2023-03-22T18:59:21;97269.31;;;12.49;50.04
20987;BME280;10652;50.306;8.570;2023-03-22T19:03:22;97278.16;;;12.48;49.85
20987;BME280;10652;50.306;8.570;2023-03-22T19:07:23;97276.47;;;12.47;49.75
20987;BME280;10652;50.306;8.570;2023-03-22T19:11:24;97276.47;;;12.47;49.68
20987;BME280;10652;50.306;8.570;2023-03-22T19:15:26;97278.47;;;12.68;54.75
20987;BME280;10652;50.306;8.570;2023-03-22T19:19:27;97275.34;;;13.01;54.71
20987;BME280;10652;50.306;8.570;2023-03-22T19:23:32;97263.28;;;13.23;55.16
20987;BME280;10652;50.306;8.570;2023-03-22T19:27:33;97270.22;;;13.36;54.67
20987;BME280;10652;50.306;8.570;2023-03-22T19:31:35;97265.78;;;13.49;55.15
20987;BME280;10652;50.306;8.570;2023-03-22T19:35:36;97262.03;;;13.53;54.52
20987;BME280;10652;50.306;8.570;2023-03-22T19:39:37;97257.56;;;13.54;53.10
20987;BME280;10652;50.306;8.570;2023-03-22T19:43:38;97256.28;;;13.47;53.28
20987;BME280;10652;50.306;8.570;2023-03-22T19:47:40;97263.97;;;13.50;54.37
20987;BME280;10652;50.306;8.570;2023-03-22T19:51:41;97257.38;;;13.44;53.12
20987;BME280;10652;50.306;8.570;2023-03-22T19:55:42;97266.75;;;13.48;53.51
20987;BME280;10652;50.306;8.570;2023-03-22T19:59:43;97261.47;;;13.48;54.03
20987;BME280;10652;50.306;8.570;2023-03-22T20:03:44;97252.94;;;13.57;56.04
20987;BME280;10652;50.306;8.570;2023-03-22T20:07:47;97250.75;;;13.75;56.05
20987;BME280;10652;50.306;8.570;2023-03-22T20:11:48;97250.81;;;13.86;56.59
20987;BME280;10652;50.306;8.570;2023-03-22T20:15:50;97241.19;;;13.85;54.99
20987;BME280;10652;50.306;8.570;2023-03-22T20:19:51;97234.41;;;13.70;55.24
20987;BME280;10652;50.306;8.570;2023-03-22T20:23:53;97236.88;;;13.61;54.64
20987;BME280;10652;50.306;8.570;2023-03-22T20:27:55;97236.47;;;13.41;55.12
20987;BME280;10652;50.306;8.570;2023-03-22T20:31:56;97230.91;;;13.21;52.68
20987;BME280;10652;50.306;8.570;2023-03-22T20:35:58;97230.22;;;12.93;51.95
20987;BME280;10652;50.306;8.570;2023-03-22T20:39:59;97227.25;;;12.73;52.38
20987;BME280;10652;50.306;8.570;2023-03-22T20:44:00;97222.22;;;12.57;52.67
20987;BME280;10652;50.306;8.570;2023-03-22T20:48:01;97223.00;;;12.45;53.05
20987;BME280;10652;50.306;8.570;2023-03-22T20:52:02;97222.88;;;12.34;53.41
20987;BME280;10652;50.306;8.570;2023-03-22T20:56:04;97226.34;;;12.21;53.83
20987;BME280;10652;50.306;8.570;2023-03-22T21:00:08;97219.88;;;12.13;53.95
20987;BME280;10652;50.306;8.570;2023-03-22T21:04:12;97213.13;;;12.09;54.24
20987;BME280;10652;50.306;8.570;2023-03-22T21:08:13;97216.19;;;12.03;54.56
20987;BME280;10652;50.306;8.570;2023-03-22T21:12:14;97210.25;;;11.99;54.83
20987;BME280;10652;50.306;8.570;2023-03-22T21:16:16;97201.63;;;11.97;54.91
20987;BME280;10652;50.306;8.570;2023-03-22T21:20:17;97203.50;;;11.95;55.13
20987;BME280;10652;50.306;8.570;2023-03-22T21:24:18;97209.84;;;11.93;55.11
20987;BME280;10652;50.306;8.570;2023-03-22T21:28:20;97204.66;;;11.91;55.16
20987;BME280;10652;50.306;8.570;2023-03-22T21:32:25;97205.72;;;11.89;54.88
20987;BME280;10652;50.306;8.570;2023-03-22T21:36:26;97213.69;;;11.87;55.20
20987;BME280;10652;50.306;8.570;2023-03-22T21:40:28;97207.41;;;11.90;54.74
20987;BME280;10652;50.306;8.570;2023-03-22T21:44:32;97207.28;;;11.91;54.51
20987;BME280;10652;50.306;8.570;2023-03-22T21:48:33;97210.69;;;11.93;54.51
20987;BME280;10652;50.306;8.570;2023-03-22T21:52:41;97206.91;;;11.97;54.75
20987;BME280;10652;50.306;8.570;2023-03-22T21:56:43;97201.63;;;11.97;54.36
20987;BME280;10652;50.306;8.570;2023-03-22T22:00:44;97202.47;;;11.98;54.44
20987;BME280;10652;50.306;8.570;2023-03-22T22:04:45;97208.59;;;11.98;54.60
20987;BME280;10652;50.306;8.570;2023-03-22T22:08:46;97198.25;;;11.95;54.51
20987;BME280;10652;50.306;8.570;2023-03-22T22:12:48;97197.31;;;11.96;55.52
20987;BME280;10652;50.306;8.570;2023-03-22T22:16:51;97185.38;;;11.91;56.02
20987;BME280;10652;50.306;8.570;2023-03-22T22:20:59;97182.34;;;11.84;55.93
20987;BME280;10652;50.306;8.570;2023-03-22T22:25:01;97174.84;;;11.78;56.10
20987;BME280;10652;50.306;8.570;2023-03-22T22:29:02;97170.41;;;11.78;56.13
20987;BME280;10652;50.306;8.570;2023-03-22T22:33:05;97173.16;;;11.77;55.79